sensor_id;sensor_type;location;lat;lon;timestamp;P1;durP1;ratioP1;P2;durP2;ratioP2
72895;SDS011;61036;53.224;6.554;2023-03-19T00:01:27;24.77;;;20.27;;
72895;SDS011;61036;53.224;6.554;2023-03-19T00:03:53;26.07;;;20.43;;
72895;SDS011;61036;53.224;6.554;2023-03-19T00:06:19;25.30;;;20.20;;
72895;SDS011;61036;53.224;6.554;2023-03-19T00:08:45;23.03;;;18.97;;
72895;SDS011;61036;53.224;6.554;2023-03-19T00:11:11;24.97;;;20.00;;
72895;SDS011;61036;53.224;6.554;2023-03-19T00:13:37;24.47;;;19.77;;
72895;SDS011;61036;53.224;6.554;2023-03-19T00:16:04;24.70;;;19.27;;
72895;SDS011;61036;53.224;6.554;2023-03-19T00:18:30;24.67;;;19.20;;
72895;SDS011;61036;53.224;6.554;2023-03-19T00:20:56;26.83;;;19.80;;
72895;SDS011;61036;53.224;6.554;2023-03-19T00:23:22;24.30;;;19.70;;
72895;SDS011;61036;53.224;6.554;2023-03-19T00:25:47;25.53;;;19.83;;
72895;SDS011;61036;53.224;6.554;2023-03-19T00:28:13;27.33;;;20.40;;
72895;SDS011;61036;53.224;6.554;2023-03-19T00:30:39;25.77;;;20.17;;
72895;SDS011;61036;53.224;6.554;2023-03-19T00:33:05;24.73;;;18.53;;
72895;SDS011;61036;53.224;6.554;2023-03-19T00:35:30;24.53;;;19.87;;
72895;SDS011;61036;53.224;6.554;2023-03-19T00:37:56;25.37;;;20.50;;
72895;SDS011;61036;53.224;6.554;2023-03-19T00:40:22;27.43;;;19.97;;
72895;SDS011;61036;53.224;6.554;2023-03-19T00:42:47;23.03;;;18.37;;
72895;SDS011;61036;53.224;6.554;2023-03-19T00:45:13;26.43;;;19.87;;
72895;SDS011;61036;53.224;6.554;2023-03-19T00:47:38;26.07;;;19.50;;
72895;SDS011;61036;53.224;6.554;2023-03-19T00:50:04;22.83;;;18.27;;
72895;SDS011;61036;53.224;6.554;2023-03-19T00:52:31;24.43;;;18.53;;
72895;SDS011;61036;53.224;6.554;2023-03-19T00:54:57;22.47;;;18.37;;
72895;SDS011;61036;53.224;6.554;2023-03-19T00:57:23;22.00;;;18.37;;
72895;SDS011;61036;53.224;6.554;2023-03-19T00:59:49;21.53;;;18.00;;
72895;SDS011;61036;53.224;6.554;2023-03-19T01:02:15;22.17;;;18.03;;
72895;SDS011;61036;53.224;6.554;2023-03-19T01:04:41;23.60;;;18.97;;
72895;SDS011;61036;53.224;6.554;2023-03-19T01:07:08;22.23;;;17.93;;
72895;SDS011;61036;53.224;6.554;2023-03-19T01:09:34;22.57;;;17.93;;
72895;SDS011;61036;53.224;6.554;2023-03-19T01:12:00;19.63;;;16.03;;
72895;SDS011;61036;53.224;6.554;2023-03-19T01:14:29;22.07;;;17.97;;
72895;SDS011;61036;53.224;6.554;2023-03-19T01:16:56;23.03;;;17.53;;
72895;SDS011;61036;53.224;6.554;2023-03-19T01:19:22;22.63;;;17.73;;
72895;SDS011;61036;53.224;6.554;2023-03-19T01:21:48;27.73;;;21.73;;
72895;SDS011;61036;53.224;6.554;2023-03-19T01:24:18;24.80;;;18.53;;
72895;SDS011;61036;53.224;6.554;2023-03-19T01:26:46;23.60;;;18.80;;
72895;SDS011;61036;53.224;6.554;2023-03-19T01:29:19;25.83;;;20.33;;
72895;SDS011;61036;53.224;6.554;2023-03-19T01:31:45;24.40;;;19.13;;
72895;SDS011;61036;53.224;6.554;2023-03-19T01:34:19;22.63;;;18.77;;
72895;SDS011;61036;53.224;6.554;2023-03-19T01:36:52;24.10;;;16.63;;
72895;SDS011;61036;53.224;6.554;2023-03-19T01:39:24;20.50;;;17.03;;
72895;SDS011;61036;53.224;6.554;2023-03-19T01:41:50;22.07;;;17.30;;
72895;SDS011;61036;53.224;6.554;2023-03-19T01:44:36;23.60;;;17.90;;
72895;SDS011;61036;53.224;6.554;2023-03-19T01:47:32;21.43;;;16.53;;
72895;SDS011;61036;53.224;6.554;2023-03-19T01:50:25;19.23;;;16.33;;
72895;SDS011;61036;53.224;6.554;2023-03-19T01:53:31;18.20;;;14.90;;
72895;SDS011;61036;53.224;6.554;2023-03-19T01:56:22;20.50;;;15.63;;
72895;SDS011;61036;53.224;6.554;2023-03-19T01:59:08;19.80;;;15.90;;
72895;SDS011;61036;53.224;6.554;2023-03-19T02:04:30;19.17;;;14.67;;
72895;SDS011;61036;53.224;6.554;2023-03-19T02:06:58;15.50;;;13.50;;
72895;SDS011;61036;53.224;6.554;2023-03-19T02:09:25;20.43;;;15.10;;
72895;SDS011;61036;53.224;6.554;2023-03-19T02:11:52;17.27;;;13.30;;
72895;SDS011;61036;53.224;6.554;2023-03-19T02:14:19;20.03;;;12.83;;
72895;SDS011;61036;53.224;6.554;2023-03-19T02:16:45;17.07;;;12.73;;
72895;SDS011;61036;53.224;6.554;2023-03-19T02:19:12;17.53;;;12.80;;
72895;SDS011;61036;53.224;6.554;2023-03-19T02:21:43;14.27;;;11.20;;
72895;SDS011;61036;53.224;6.554;2023-03-19T02:24:13;13.60;;;11.37;;
72895;SDS011;61036;53.224;6.554;2023-03-19T02:26:52;13.57;;;11.27;;
72895;SDS011;61036;53.224;6.554;2023-03-19T02:29:20;18.23;;;12.90;;
72895;SDS011;61036;53.224;6.554;2023-03-19T02:31:47;14.77;;;12.17;;
72895;SDS011;61036;53.224;6.554;2023-03-19T02:36:39;19.07;;;13.03;;
72895;SDS011;61036;53.224;6.554;2023-03-19T02:39:08;17.50;;;13.10;;
72895;SDS011;61036;53.224;6.554;2023-03-19T02:41:41;16.43;;;12.83;;
72895;SDS011;61036;53.224;6.554;2023-03-19T02:44:08;16.57;;;12.73;;
72895;SDS011;61036;53.224;6.554;2023-03-19T02:46:36;16.27;;;12.13;;
72895;SDS011;61036;53.224;6.554;2023-03-19T02:49:02;15.53;;;13.00;;
72895;SDS011;61036;53.224;6.554;2023-03-19T02:51:28;16.57;;;12.60;;
72895;SDS011;61036;53.224;6.554;2023-03-19T02:53:54;14.80;;;12.10;;
72895;SDS011;61036;53.224;6.554;2023-03-19T02:56:19;13.00;;;10.33;;
72895;SDS011;61036;53.224;6.554;2023-03-19T02:58:45;15.47;;;11.83;;
72895;SDS011;61036;53.224;6.554;2023-03-19T03:01:11;14.40;;;10.80;;
72895;SDS011;61036;53.224;6.554;2023-03-19T03:03:37;15.57;;;11.60;;
72895;SDS011;61036;53.224;6.554;2023-03-19T03:06:03;14.63;;;11.00;;
72895;SDS011;61036;53.224;6.554;2023-03-19T03:08:28;14.30;;;11.07;;
72895;SDS011;61036;53.224;6.554;2023-03-19T03:10:54;13.17;;;10.23;;
72895;SDS011;61036;53.224;6.554;2023-03-19T03:13:19;12.33;;;9.77;;
72895;SDS011;61036;53.224;6.554;2023-03-19T03:15:45;14.07;;;9.97;;
72895;SDS011;61036;53.224;6.554;2023-03-19T03:18:12;13.07;;;10.23;;
72895;SDS011;61036;53.224;6.554;2023-03-19T03:20:37;13.17;;;9.57;;
72895;SDS011;61036;53.224;6.554;2023-03-19T03:23:03;13.40;;;9.40;;
72895;SDS011;61036;53.224;6.554;2023-03-19T03:25:28;11.43;;;9.13;;
72895;SDS011;61036;53.224;6.554;2023-03-19T03:27:54;13.47;;;9.17;;
72895;SDS011;61036;53.224;6.554;2023-03-19T03:30:20;13.13;;;9.37;;
72895;SDS011;61036;53.224;6.554;2023-03-19T03:32:46;12.83;;;9.27;;
72895;SDS011;61036;53.224;6.554;2023-03-19T03:35:11;11.00;;;8.83;;
72895;SDS011;61036;53.224;6.554;2023-03-19T03:37:37;12.90;;;9.00;;
72895;SDS011;61036;53.224;6.554;2023-03-19T03:40:04;11.70;;;8.60;;
72895;SDS011;61036;53.224;6.554;2023-03-19T03:42:33;12.00;;;9.07;;
72895;SDS011;61036;53.224;6.554;2023-03-19T03:45:01;12.00;;;8.17;;
72895;SDS011;61036;53.224;6.554;2023-03-19T03:47:27;9.67;;;7.87;;
72895;SDS011;61036;53.224;6.554;2023-03-19T03:49:53;9.90;;;7.47;;
72895;SDS011;61036;53.224;6.554;2023-03-19T03:52:18;9.90;;;7.43;;
72895;SDS011;61036;53.224;6.554;2023-03-19T03:54:44;12.53;;;8.73;;
72895;SDS011;61036;53.224;6.554;2023-03-19T03:57:09;10.37;;;8.07;;
72895;SDS011;61036;53.224;6.554;2023-03-19T03:59:36;10.90;;;7.60;;
72895;SDS011;61036;53.224;6.554;2023-03-19T04:02:01;9.67;;;7.00;;
72895;SDS011;61036;53.224;6.554;2023-03-19T04:04:28;10.37;;;7.27;;
72895;SDS011;61036;53.224;6.554;2023-03-19T04:06:53;9.97;;;7.40;;
72895;SDS011;61036;53.224;6.554;2023-03-19T04:09:35;10.53;;;7.33;;
72895;SDS011;61036;53.224;6.554;2023-03-19T04:12:01;8.70;;;6.73;;
72895;SDS011;61036;53.224;6.554;2023-03-19T04:14:33;11.07;;;7.47;;
72895;SDS011;61036;53.224;6.554;2023-03-19T04:16:59;9.40;;;6.30;;
72895;SDS011;61036;53.224;6.554;2023-03-19T04:19:25;9.30;;;6.70;;
72895;SDS011;61036;53.224;6.554;2023-03-19T04:21:51;10.07;;;6.60;;
72895;SDS011;61036;53.224;6.554;2023-03-19T04:24:16;9.93;;;7.53;;
72895;SDS011;61036;53.224;6.554;2023-03-19T04:26:42;8.83;;;6.97;;
72895;SDS011;61036;53.224;6.554;2023-03-19T04:29:08;9.70;;;6.87;;
72895;SDS011;61036;53.224;6.554;2023-03-19T04:31:34;9.27;;;6.60;;
72895;SDS011;61036;53.224;6.554;2023-03-19T04:33:59;9.53;;;7.57;;
72895;SDS011;61036;53.224;6.554;2023-03-19T04:36:25;8.47;;;6.27;;
72895;SDS011;61036;53.224;6.554;2023-03-19T04:38:51;9.37;;;6.93;;
72895;SDS011;61036;53.224;6.554;2023-03-19T04:41:18;9.33;;;7.43;;
72895;SDS011;61036;53.224;6.554;2023-03-19T04:43:57;9.37;;;6.60;;
72895;SDS011;61036;53.224;6.554;2023-03-19T04:46:23;11.47;;;7.13;;
72895;SDS011;61036;53.224;6.554;2023-03-19T04:48:48;8.10;;;6.50;;
72895;SDS011;61036;53.224;6.554;2023-03-19T04:51:15;8.50;;;6.70;;
72895;SDS011;61036;53.224;6.554;2023-03-19T04:53:41;9.53;;;6.50;;
72895;SDS011;61036;53.224;6.554;2023-03-19T04:56:07;9.37;;;6.87;;
72895;SDS011;61036;53.224;6.554;2023-03-19T04:58:33;9.57;;;7.23;;
72895;SDS011;61036;53.224;6.554;2023-03-19T05:01:01;10.13;;;7.10;;
72895;SDS011;61036;53.224;6.554;2023-03-19T05:03:46;10.97;;;6.83;;
72895;SDS011;61036;53.224;6.554;2023-03-19T05:06:12;8.27;;;6.47;;
72895;SDS011;61036;53.224;6.554;2023-03-19T05:08:38;9.47;;;7.33;;
72895;SDS011;61036;53.224;6.554;2023-03-19T05:11:03;10.77;;;7.10;;
72895;SDS011;61036;53.224;6.554;2023-03-19T05:13:38;10.37;;;7.77;;
72895;SDS011;61036;53.224;6.554;2023-03-19T05:16:04;9.50;;;7.83;;
72895;SDS011;61036;53.224;6.554;2023-03-19T05:18:30;10.37;;;7.77;;
72895;SDS011;61036;53.224;6.554;2023-03-19T05:20:57;11.67;;;7.60;;
72895;SDS011;61036;53.224;6.554;2023-03-19T05:23:24;10.13;;;7.53;;
72895;SDS011;61036;53.224;6.554;2023-03-19T05:25:57;10.63;;;7.33;;
72895;SDS011;61036;53.224;6.554;2023-03-19T05:28:45;11.03;;;7.30;;
72895;SDS011;61036;53.224;6.554;2023-03-19T05:31:11;11.43;;;7.67;;
72895;SDS011;61036;53.224;6.554;2023-03-19T05:33:45;9.30;;;7.10;;
72895;SDS011;61036;53.224;6.554;2023-03-19T05:36:11;11.77;;;7.47;;
72895;SDS011;61036;53.224;6.554;2023-03-19T05:38:57;11.07;;;7.80;;
72895;SDS011;61036;53.224;6.554;2023-03-19T05:41:29;11.07;;;7.50;;
72895;SDS011;61036;53.224;6.554;2023-03-19T05:44:00;11.90;;;8.10;;
72895;SDS011;61036;53.224;6.554;2023-03-19T05:46:46;10.07;;;6.80;;
72895;SDS011;61036;53.224;6.554;2023-03-19T05:49:13;11.30;;;7.63;;
72895;SDS011;61036;53.224;6.554;2023-03-19T05:51:39;11.10;;;7.90;;
72895;SDS011;61036;53.224;6.554;2023-03-19T05:54:06;11.90;;;8.17;;
72895;SDS011;61036;53.224;6.554;2023-03-19T05:56:42;12.57;;;8.13;;
72895;SDS011;61036;53.224;6.554;2023-03-19T05:59:28;10.77;;;8.27;;
72895;SDS011;61036;53.224;6.554;2023-03-19T06:02:07;10.80;;;8.40;;
72895;SDS011;61036;53.224;6.554;2023-03-19T06:04:34;10.77;;;7.60;;
72895;SDS011;61036;53.224;6.554;2023-03-19T06:06:59;10.63;;;8.07;;
72895;SDS011;61036;53.224;6.554;2023-03-19T06:09:25;10.83;;;7.80;;
72895;SDS011;61036;53.224;6.554;2023-03-19T06:11:54;11.07;;;7.93;;
72895;SDS011;61036;53.224;6.554;2023-03-19T06:14:39;9.70;;;7.40;;
72895;SDS011;61036;53.224;6.554;2023-03-19T06:17:37;10.93;;;8.13;;
72895;SDS011;61036;53.224;6.554;2023-03-19T06:20:06;9.67;;;7.20;;
72895;SDS011;61036;53.224;6.554;2023-03-19T06:22:32;10.63;;;7.40;;
72895;SDS011;61036;53.224;6.554;2023-03-19T06:24:58;11.63;;;7.83;;
72895;SDS011;61036;53.224;6.554;2023-03-19T06:27:24;11.13;;;8.17;;
72895;SDS011;61036;53.224;6.554;2023-03-19T06:29:52;10.57;;;7.47;;
72895;SDS011;61036;53.224;6.554;2023-03-19T06:32:23;11.03;;;7.70;;
72895;SDS011;61036;53.224;6.554;2023-03-19T06:34:50;9.80;;;7.47;;
72895;SDS011;61036;53.224;6.554;2023-03-19T06:37:17;11.67;;;7.80;;
72895;SDS011;61036;53.224;6.554;2023-03-19T06:39:43;10.20;;;7.90;;
72895;SDS011;61036;53.224;6.554;2023-03-19T06:42:08;11.13;;;8.20;;
72895;SDS011;61036;53.224;6.554;2023-03-19T06:44:34;11.00;;;8.17;;
72895;SDS011;61036;53.224;6.554;2023-03-19T06:47:00;12.53;;;8.03;;
72895;SDS011;61036;53.224;6.554;2023-03-19T06:49:25;11.67;;;7.43;;
72895;SDS011;61036;53.224;6.554;2023-03-19T06:51:51;9.57;;;7.40;;
72895;SDS011;61036;53.224;6.554;2023-03-19T06:54:17;11.17;;;7.80;;
72895;SDS011;61036;53.224;6.554;2023-03-19T06:56:43;8.70;;;6.43;;
72895;SDS011;61036;53.224;6.554;2023-03-19T06:59:08;8.30;;;6.50;;
72895;SDS011;61036;53.224;6.554;2023-03-19T07:01:38;10.93;;;7.00;;
72895;SDS011;61036;53.224;6.554;2023-03-19T07:04:07;9.80;;;6.20;;
72895;SDS011;61036;53.224;6.554;2023-03-19T07:06:33;7.63;;;5.70;;
72895;SDS011;61036;53.224;6.554;2023-03-19T07:08:59;8.60;;;6.17;;
72895;SDS011;61036;53.224;6.554;2023-03-19T07:11:25;8.40;;;6.37;;
72895;SDS011;61036;53.224;6.554;2023-03-19T07:13:51;10.17;;;6.57;;
72895;SDS011;61036;53.224;6.554;2023-03-19T07:16:16;10.73;;;6.43;;
72895;SDS011;61036;53.224;6.554;2023-03-19T07:18:42;8.90;;;6.03;;
72895;SDS011;61036;53.224;6.554;2023-03-19T07:21:07;7.90;;;5.90;;
72895;SDS011;61036;53.224;6.554;2023-03-19T07:23:33;9.13;;;6.07;;
72895;SDS011;61036;53.224;6.554;2023-03-19T07:25:59;7.73;;;5.63;;
72895;SDS011;61036;53.224;6.554;2023-03-19T07:28:24;9.50;;;5.50;;
72895;SDS011;61036;53.224;6.554;2023-03-19T07:30:51;8.83;;;6.27;;
72895;SDS011;61036;53.224;6.554;2023-03-19T07:33:17;10.40;;;6.80;;
72895;SDS011;61036;53.224;6.554;2023-03-19T07:35:43;8.57;;;6.73;;
72895;SDS011;61036;53.224;6.554;2023-03-19T07:38:08;10.30;;;7.50;;
72895;SDS011;61036;53.224;6.554;2023-03-19T07:40:34;10.60;;;7.83;;
72895;SDS011;61036;53.224;6.554;2023-03-19T07:43:00;8.67;;;6.70;;
72895;SDS011;61036;53.224;6.554;2023-03-19T07:45:25;10.60;;;7.60;;
72895;SDS011;61036;53.224;6.554;2023-03-19T07:47:51;11.73;;;7.70;;
72895;SDS011;61036;53.224;6.554;2023-03-19T07:50:16;10.70;;;7.50;;
72895;SDS011;61036;53.224;6.554;2023-03-19T07:52:44;10.33;;;8.00;;
72895;SDS011;61036;53.224;6.554;2023-03-19T07:55:11;10.67;;;7.97;;
72895;SDS011;61036;53.224;6.554;2023-03-19T07:57:37;12.63;;;8.60;;
72895;SDS011;61036;53.224;6.554;2023-03-19T08:00:03;11.37;;;8.23;;
72895;SDS011;61036;53.224;6.554;2023-03-19T08:02:38;12.23;;;8.03;;
72895;SDS011;61036;53.224;6.554;2023-03-19T08:05:03;12.30;;;8.83;;
72895;SDS011;61036;53.224;6.554;2023-03-19T08:07:29;12.73;;;9.20;;
72895;SDS011;61036;53.224;6.554;2023-03-19T08:09:56;15.20;;;10.90;;
72895;SDS011;61036;53.224;6.554;2023-03-19T08:12:22;14.00;;;10.37;;
72895;SDS011;61036;53.224;6.554;2023-03-19T08:14:49;16.50;;;12.63;;
72895;SDS011;61036;53.224;6.554;2023-03-19T08:17:15;15.40;;;12.50;;
72895;SDS011;61036;53.224;6.554;2023-03-19T08:19:41;16.80;;;12.63;;
72895;SDS011;61036;53.224;6.554;2023-03-19T08:22:07;17.03;;;12.67;;
72895;SDS011;61036;53.224;6.554;2023-03-19T08:24:32;18.03;;;12.70;;
72895;SDS011;61036;53.224;6.554;2023-03-19T08:26:58;17.07;;;12.90;;
72895;SDS011;61036;53.224;6.554;2023-03-19T08:29:24;19.10;;;13.30;;
72895;SDS011;61036;53.224;6.554;2023-03-19T08:31:53;17.37;;;13.40;;
72895;SDS011;61036;53.224;6.554;2023-03-19T08:34:20;18.60;;;14.47;;
72895;SDS011;61036;53.224;6.554;2023-03-19T08:36:47;16.63;;;13.60;;
72895;SDS011;61036;53.224;6.554;2023-03-19T08:39:12;19.60;;;15.10;;
72895;SDS011;61036;53.224;6.554;2023-03-19T08:41:38;19.33;;;15.03;;
72895;SDS011;61036;53.224;6.554;2023-03-19T08:44:04;20.10;;;15.53;;
72895;SDS011;61036;53.224;6.554;2023-03-19T08:46:29;17.87;;;14.47;;
72895;SDS011;61036;53.224;6.554;2023-03-19T08:48:56;20.33;;;14.73;;
72895;SDS011;61036;53.224;6.554;2023-03-19T08:51:22;17.70;;;12.77;;
72895;SDS011;61036;53.224;6.554;2023-03-19T08:53:50;17.80;;;13.10;;
72895;SDS011;61036;53.224;6.554;2023-03-19T08:56:16;15.77;;;12.57;;
72895;SDS011;61036;53.224;6.554;2023-03-19T08:58:41;16.00;;;13.20;;
72895;SDS011;61036;53.224;6.554;2023-03-19T09:01:11;16.47;;;12.67;;
72895;SDS011;61036;53.224;6.554;2023-03-19T09:03:38;16.67;;;12.93;;
72895;SDS011;61036;53.224;6.554;2023-03-19T09:06:06;17.30;;;13.10;;
72895;SDS011;61036;53.224;6.554;2023-03-19T09:08:33;16.90;;;12.63;;
72895;SDS011;61036;53.224;6.554;2023-03-19T09:10:59;16.57;;;12.47;;
72895;SDS011;61036;53.224;6.554;2023-03-19T09:13:25;16.37;;;12.90;;
72895;SDS011;61036;53.224;6.554;2023-03-19T09:15:51;17.27;;;12.73;;
72895;SDS011;61036;53.224;6.554;2023-03-19T09:18:17;17.73;;;12.40;;
72895;SDS011;61036;53.224;6.554;2023-03-19T09:20:45;16.20;;;12.63;;
72895;SDS011;61036;53.224;6.554;2023-03-19T09:23:11;15.53;;;11.50;;
72895;SDS011;61036;53.224;6.554;2023-03-19T09:25:37;15.70;;;11.47;;
72895;SDS011;61036;53.224;6.554;2023-03-19T09:28:03;16.37;;;12.00;;
72895;SDS011;61036;53.224;6.554;2023-03-19T09:30:29;15.00;;;11.37;;
72895;SDS011;61036;53.224;6.554;2023-03-19T09:32:55;15.40;;;12.13;;
72895;SDS011;61036;53.224;6.554;2023-03-19T09:35:20;17.07;;;12.20;;
72895;SDS011;61036;53.224;6.554;2023-03-19T09:37:47;16.47;;;12.40;;
72895;SDS011;61036;53.224;6.554;2023-03-19T09:40:20;15.37;;;12.03;;
72895;SDS011;61036;53.224;6.554;2023-03-19T09:46:08;17.00;;;12.53;;
72895;SDS011;61036;53.224;6.554;2023-03-19T09:48:48;16.93;;;11.97;;
72895;SDS011;61036;53.224;6.554;2023-03-19T09:51:29;14.50;;;11.33;;
72895;SDS011;61036;53.224;6.554;2023-03-19T09:54:06;15.97;;;11.97;;
72895;SDS011;61036;53.224;6.554;2023-03-19T09:56:42;15.20;;;11.47;;
72895;SDS011;61036;53.224;6.554;2023-03-19T09:59:08;16.27;;;12.23;;
72895;SDS011;61036;53.224;6.554;2023-03-19T10:01:34;14.87;;;10.53;;
72895;SDS011;61036;53.224;6.554;2023-03-19T10:06:40;14.57;;;11.00;;
72895;SDS011;61036;53.224;6.554;2023-03-19T10:20:44;14.43;;;10.87;;
72895;SDS011;61036;53.224;6.554;2023-03-19T10:23:24;15.20;;;10.93;;
72895;SDS011;61036;53.224;6.554;2023-03-19T10:25:55;14.80;;;11.30;;
72895;SDS011;61036;53.224;6.554;2023-03-19T10:28:23;13.57;;;10.67;;
72895;SDS011;61036;53.224;6.554;2023-03-19T10:30:57;13.10;;;10.53;;
72895;SDS011;61036;53.224;6.554;2023-03-19T10:33:35;13.53;;;10.43;;
72895;SDS011;61036;53.224;6.554;2023-03-19T10:36:09;14.03;;;11.63;;
72895;SDS011;61036;53.224;6.554;2023-03-19T10:38:39;15.63;;;11.33;;
72895;SDS011;61036;53.224;6.554;2023-03-19T10:44:32;16.27;;;11.93;;
72895;SDS011;61036;53.224;6.554;2023-03-19T10:46:58;15.23;;;11.13;;
72895;SDS011;61036;53.224;6.554;2023-03-19T10:49:34;15.80;;;10.60;;
72895;SDS011;61036;53.224;6.554;2023-03-19T10:52:00;16.87;;;13.40;;
72895;SDS011;61036;53.224;6.554;2023-03-19T10:54:26;15.43;;;11.23;;
72895;SDS011;61036;53.224;6.554;2023-03-19T10:56:59;15.40;;;11.60;;
72895;SDS011;61036;53.224;6.554;2023-03-19T10:59:46;14.47;;;11.43;;
72895;SDS011;61036;53.224;6.554;2023-03-19T11:02:18;14.90;;;11.40;;
72895;SDS011;61036;53.224;6.554;2023-03-19T11:04:47;14.63;;;10.77;;
72895;SDS011;61036;53.224;6.554;2023-03-19T11:07:30;15.37;;;11.70;;
72895;SDS011;61036;53.224;6.554;2023-03-19T11:09:57;14.83;;;11.43;;
72895;SDS011;61036;53.224;6.554;2023-03-19T11:12:23;15.93;;;11.87;;
72895;SDS011;61036;53.224;6.554;2023-03-19T11:14:53;15.63;;;11.70;;
72895;SDS011;61036;53.224;6.554;2023-03-19T11:17:25;15.07;;;12.00;;
72895;SDS011;61036;53.224;6.554;2023-03-19T11:19:54;17.33;;;13.50;;
72895;SDS011;61036;53.224;6.554;2023-03-19T11:22:22;16.77;;;12.83;;
72895;SDS011;61036;53.224;6.554;2023-03-19T11:25:00;17.27;;;13.13;;
72895;SDS011;61036;53.224;6.554;2023-03-19T11:30:35;15.80;;;12.00;;
72895;SDS011;61036;53.224;6.554;2023-03-19T11:36:11;17.40;;;13.77;;
72895;SDS011;61036;53.224;6.554;2023-03-19T11:53:02;17.07;;;12.37;;
72895;SDS011;61036;53.224;6.554;2023-03-19T12:01:52;16.47;;;13.33;;
72895;SDS011;61036;53.224;6.554;2023-03-19T12:14:51;19.57;;;12.87;;
72895;SDS011;61036;53.224;6.554;2023-03-19T12:20:04;16.37;;;11.30;;
72895;SDS011;61036;53.224;6.554;2023-03-19T12:25:40;18.80;;;13.37;;
72895;SDS011;61036;53.224;6.554;2023-03-19T12:31:22;19.03;;;13.30;;
72895;SDS011;61036;53.224;6.554;2023-03-19T12:42:31;20.20;;;14.77;;
72895;SDS011;61036;53.224;6.554;2023-03-19T12:45:01;18.60;;;14.17;;
72895;SDS011;61036;53.224;6.554;2023-03-19T12:47:33;23.90;;;14.87;;
72895;SDS011;61036;53.224;6.554;2023-03-19T12:50:04;19.07;;;13.57;;
72895;SDS011;61036;53.224;6.554;2023-03-19T12:52:37;20.97;;;14.30;;
72895;SDS011;61036;53.224;6.554;2023-03-19T12:57:53;26.00;;;16.03;;
72895;SDS011;61036;53.224;6.554;2023-03-19T13:00:35;21.80;;;15.03;;
72895;SDS011;61036;53.224;6.554;2023-03-19T13:03:16;25.53;;;16.80;;
72895;SDS011;61036;53.224;6.554;2023-03-19T13:06:01;23.10;;;16.27;;
72895;SDS011;61036;53.224;6.554;2023-03-19T13:08:41;24.63;;;15.97;;
72895;SDS011;61036;53.224;6.554;2023-03-19T13:11:22;23.47;;;15.93;;
72895;SDS011;61036;53.224;6.554;2023-03-19T13:14:16;23.77;;;15.40;;
72895;SDS011;61036;53.224;6.554;2023-03-19T13:16:53;24.13;;;16.17;;
72895;SDS011;61036;53.224;6.554;2023-03-19T13:19:45;23.87;;;16.17;;
72895;SDS011;61036;53.224;6.554;2023-03-19T13:22:16;27.17;;;17.80;;
72895;SDS011;61036;53.224;6.554;2023-03-19T13:24:45;26.27;;;17.87;;
72895;SDS011;61036;53.224;6.554;2023-03-19T13:27:20;28.70;;;18.23;;
72895;SDS011;61036;53.224;6.554;2023-03-19T13:29:59;28.37;;;18.73;;
72895;SDS011;61036;53.224;6.554;2023-03-19T13:32:33;29.57;;;18.87;;
72895;SDS011;61036;53.224;6.554;2023-03-19T13:37:40;30.93;;;19.30;;
72895;SDS011;61036;53.224;6.554;2023-03-19T13:40:34;28.20;;;18.17;;
72895;SDS011;61036;53.224;6.554;2023-03-19T13:43:03;30.07;;;17.97;;
72895;SDS011;61036;53.224;6.554;2023-03-19T13:45:32;28.70;;;17.47;;
72895;SDS011;61036;53.224;6.554;2023-03-19T13:48:42;29.53;;;18.13;;
72895;SDS011;61036;53.224;6.554;2023-03-19T13:50:55;32.17;;;19.60;;
72895;SDS011;61036;53.224;6.554;2023-03-19T13:56:16;26.77;;;17.40;;
72895;SDS011;61036;53.224;6.554;2023-03-19T13:58:44;31.90;;;18.13;;
72895;SDS011;61036;53.224;6.554;2023-03-19T14:04:00;32.10;;;19.60;;
72895;SDS011;61036;53.224;6.554;2023-03-19T14:09:03;30.73;;;18.07;;
72895;SDS011;61036;53.224;6.554;2023-03-19T14:11:31;28.30;;;17.60;;
72895;SDS011;61036;53.224;6.554;2023-03-19T14:14:04;30.73;;;18.03;;
72895;SDS011;61036;53.224;6.554;2023-03-19T14:16:40;26.37;;;16.70;;
72895;SDS011;61036;53.224;6.554;2023-03-19T14:19:11;26.70;;;16.73;;
72895;SDS011;61036;53.224;6.554;2023-03-19T14:21:44;30.60;;;18.40;;
72895;SDS011;61036;53.224;6.554;2023-03-19T14:27:03;27.93;;;16.27;;
72895;SDS011;61036;53.224;6.554;2023-03-19T14:29:40;26.70;;;16.20;;
72895;SDS011;61036;53.224;6.554;2023-03-19T14:32:08;26.40;;;15.90;;
72895;SDS011;61036;53.224;6.554;2023-03-19T14:34:41;27.13;;;15.03;;
72895;SDS011;61036;53.224;6.554;2023-03-19T14:40:12;25.27;;;14.27;;
72895;SDS011;61036;53.224;6.554;2023-03-19T14:56:51;27.37;;;14.80;;
72895;SDS011;61036;53.224;6.554;2023-03-19T14:59:20;27.80;;;14.13;;
72895;SDS011;61036;53.224;6.554;2023-03-19T15:01:48;24.80;;;13.80;;
72895;SDS011;61036;53.224;6.554;2023-03-19T15:04:16;25.23;;;13.90;;
72895;SDS011;61036;53.224;6.554;2023-03-19T15:06:52;24.03;;;12.70;;
72895;SDS011;61036;53.224;6.554;2023-03-19T15:14:33;27.97;;;16.40;;
72895;SDS011;61036;53.224;6.554;2023-03-19T15:17:26;28.00;;;15.63;;
72895;SDS011;61036;53.224;6.554;2023-03-19T15:19:54;33.73;;;17.50;;
72895;SDS011;61036;53.224;6.554;2023-03-19T15:22:31;29.57;;;17.10;;
72895;SDS011;61036;53.224;6.554;2023-03-19T15:25:11;31.53;;;17.63;;
72895;SDS011;61036;53.224;6.554;2023-03-19T15:27:38;33.03;;;19.57;;
72895;SDS011;61036;53.224;6.554;2023-03-19T15:30:24;29.27;;;17.20;;
72895;SDS011;61036;53.224;6.554;2023-03-19T15:32:53;33.07;;;19.07;;
72895;SDS011;61036;53.224;6.554;2023-03-19T15:35:21;28.83;;;17.77;;
72895;SDS011;61036;53.224;6.554;2023-03-19T15:37:51;32.90;;;19.90;;
72895;SDS011;61036;53.224;6.554;2023-03-19T15:40:19;35.10;;;19.67;;
72895;SDS011;61036;53.224;6.554;2023-03-19T15:42:47;35.70;;;20.97;;
72895;SDS011;61036;53.224;6.554;2023-03-19T15:45:17;35.80;;;20.53;;
72895;SDS011;61036;53.224;6.554;2023-03-19T15:47:51;35.77;;;20.43;;
72895;SDS011;61036;53.224;6.554;2023-03-19T15:50:36;30.40;;;17.60;;
72895;SDS011;61036;53.224;6.554;2023-03-19T15:53:10;31.10;;;18.00;;
72895;SDS011;61036;53.224;6.554;2023-03-19T15:55:40;35.77;;;19.33;;
72895;SDS011;61036;53.224;6.554;2023-03-19T15:58:14;35.43;;;17.90;;
72895;SDS011;61036;53.224;6.554;2023-03-19T16:00:42;28.93;;;16.77;;
72895;SDS011;61036;53.224;6.554;2023-03-19T16:03:11;28.83;;;16.20;;
72895;SDS011;61036;53.224;6.554;2023-03-19T16:05:42;28.60;;;16.73;;
72895;SDS011;61036;53.224;6.554;2023-03-19T16:08:12;26.20;;;15.40;;
72895;SDS011;61036;53.224;6.554;2023-03-19T16:10:45;30.53;;;17.40;;
72895;SDS011;61036;53.224;6.554;2023-03-19T16:13:22;26.47;;;15.57;;
72895;SDS011;61036;53.224;6.554;2023-03-19T16:16:00;27.17;;;16.40;;
72895;SDS011;61036;53.224;6.554;2023-03-19T16:18:27;31.80;;;17.33;;
72895;SDS011;61036;53.224;6.554;2023-03-19T16:21:04;33.43;;;19.40;;
72895;SDS011;61036;53.224;6.554;2023-03-19T16:23:33;33.00;;;19.03;;
72895;SDS011;61036;53.224;6.554;2023-03-19T16:26:03;33.70;;;19.40;;
72895;SDS011;61036;53.224;6.554;2023-03-19T16:28:34;31.90;;;19.03;;
72895;SDS011;61036;53.224;6.554;2023-03-19T16:31:14;36.23;;;18.83;;
72895;SDS011;61036;53.224;6.554;2023-03-19T16:33:45;36.83;;;19.50;;
72895;SDS011;61036;53.224;6.554;2023-03-19T16:36:11;37.50;;;20.27;;
72895;SDS011;61036;53.224;6.554;2023-03-19T16:44:40;35.50;;;20.67;;
72895;SDS011;61036;53.224;6.554;2023-03-19T16:47:11;40.60;;;20.73;;
72895;SDS011;61036;53.224;6.554;2023-03-19T16:49:38;33.67;;;19.50;;